Latest Weather Observations for Jacup

IDW60801

Issued at 11:33 pm WST Wednesday 28 June 2017 (issued every 30 minutes, with the page automatically refreshed every 10 minutes)

About weather observations | Map of weather stations | Latest weather observations for WA | Other Formats
Station Details ID: 010905 Name: JACUP Lat: -33.89 Lon: 119.11 Height: 305.0 m
Data from the previous 72 hours. | See also: Recent months at Jacup
Date/Time
WST
Temp
°C
App
Temp
°C
Dew
Point
°C
Rel
Hum
%
Delta-T
°C
Wind Press
QNH
hPa
Press
MSL
hPa
Rain since
9am
mm
Dir  Spd
km/h
Gust
km/h
Spd
kts
Gust
kts
28/11:30pm 4.2 1.0 2.9 91 0.5 NNE 9 13 5 7 1034.0 1034.2 0.2
28/11:00pm 4.3 0.7 2.8 90 0.6 NNE 11 13 6 7 1034.0 1034.2 0.0
28/10:30pm 4.8 1.3 3.5 91 0.5 NE 11 15 6 8 1034.1 1034.3 0.0
28/10:00pm 3.8 0.1 2.3 90 0.6 NE 11 13 6 7 1034.1 1034.3 0.0
28/09:30pm 4.5 0.9 2.8 89 0.7 ENE 11 11 6 6 1034.1 1034.3 0.0
28/09:00pm 5.2 2.1 3.4 88 0.8 ENE 9 11 5 6 1034.3 1034.5 0.0
28/08:30pm 6.0 2.6 4.2 88 0.8 NE 11 13 6 7 1034.2 1034.4 0.0
28/08:00pm 6.2 2.9 4.5 89 0.7 ENE 11 13 6 7 1033.9 1034.1 0.0
28/07:30pm 5.5 2.4 3.5 87 0.9 ENE 9 11 5 6 1034.0 1034.2 0.0
28/07:00pm 6.2 2.8 4.0 86 0.9 ENE 11 11 6 6 1033.8 1034.0 0.0
28/06:30pm 7.0 4.1 4.7 85 1.0 E 9 11 5 6 1033.5 1033.6 0.0
28/06:00pm 7.6 5.1 4.7 82 1.3 E 7 9 4 5 1033.4 1033.5 0.0
28/05:30pm 8.6 6.2 5.2 79 1.6 E 7 9 4 5 1033.6 1033.8 0.0
28/05:00pm 10.2 8.0 5.2 71 2.3 NE 6 9 3 5 1033.4 1033.5 0.0
28/04:30pm 12.2 9.5 5.8 65 3.0 NE 9 13 5 7 1033.5 1033.6 0.0
28/04:00pm 13.2 10.6 5.9 61 3.5 ENE 9 13 5 7 1033.3 1033.4 0.0
28/03:30pm 13.4 10.0 5.8 60 3.6 NE 13 17 7 9 1033.3 1033.4 0.0
28/03:00pm 13.5 9.8 4.6 55 4.1 ENE 13 20 7 11 1033.1 1033.2 0.0
28/02:30pm 13.9 10.4 5.3 56 4.1 ENE 13 20 7 11 1033.1 1033.2 0.0
28/02:00pm 13.5 10.0 5.4 58 3.8 ENE 13 19 7 10 1033.2 1033.3 0.0
28/01:30pm 13.1 9.6 5.5 60 3.6 E 13 22 7 12 1033.5 1033.6 0.0
28/01:00pm 13.2 10.0 4.9 57 3.9 ENE 11 19 6 10 1033.7 1033.9 0.0
28/12:30pm 14.1 10.8 6.2 59 3.8 NE 13 20 7 11 1034.1 1034.3 0.0
28/12:00pm 13.8 11.4 5.2 56 4.0 N 7 13 4 7 1034.4 1034.6 0.0
28/11:30am 13.8 10.4 5.9 59 3.8 NE 13 19 7 10 1034.8 1034.9 0.0
28/11:00am 13.8 10.8 7.6 66 3.1 NE 13 20 7 11 1035.0 1035.1 0.0
28/10:30am 12.7 10.4 7.4 70 2.6 E 9 15 5 8 1035.2 1035.3 0.0
28/10:00am 12.6 10.6 8.7 77 2.0 ENE 9 11 5 6 1035.2 1035.3 0.0
28/09:30am 11.3 10.6 10.0 92 0.7 SSE 4 7 2 4 1035.0 1035.1 0.0
28/09:00am 10.0 9.9 9.4 96 0.3 CALM 0 0 0 0 1034.6 1034.8 1.4
28/08:30am 8.4 7.9 7.8 96 0.3 CALM 0 0 0 0 1034.5 1034.7 1.4
28/08:00am 6.0 5.0 5.4 96 0.3 CALM 0 0 0 0 1034.4 1034.6 1.4
28/07:30am 4.1 2.7 3.4 95 0.3 CALM 0 0 0 0 1034.0 1034.2 1.4
28/07:00am 4.2 2.8 3.5 95 0.3 CALM 0 0 0 0 1033.8 1034.0 1.4
28/06:30am 4.8 3.5 4.1 95 0.3 CALM 0 0 0 0 1033.5 1033.6 1.4
28/06:00am 5.0 3.7 4.3 95 0.3 CALM 0 0 0 0 1033.3 1033.4 1.4
28/05:30am 4.8 3.5 4.1 95 0.3 CALM 0 0 0 0 1032.8 1032.9 1.4
28/05:00am 5.6 4.5 4.9 95 0.3 CALM 0 0 0 0 1032.6 1032.7 1.4
28/04:30am 6.5 5.5 5.8 95 0.3 CALM 0 0 0 0 1032.9 1033.0 1.4
28/04:00am 6.5 5.5 5.8 95 0.3 CALM 0 0 0 0 1032.8 1032.9 1.4
28/03:30am 6.5 5.5 5.8 95 0.3 CALM 0 0 0 0 1032.6 1032.7 1.4
28/03:00am 6.1 5.1 5.4 95 0.3 CALM 0 0 0 0 1032.6 1032.7 1.4
28/02:30am 5.8 4.7 5.1 95 0.3 CALM 0 0 0 0 1032.6 1032.7 1.4
28/02:00am 5.6 4.5 4.9 95 0.3 CALM 0 0 0 0 1032.5 1032.6 1.4
28/01:30am 6.6 5.7 5.9 95 0.3 CALM 0 0 0 0 1032.3 1032.4 1.4
28/01:00am 7.7 7.0 7.0 95 0.3 CALM 0 0 0 0 1032.2 1032.3 1.4
28/12:30am 8.9 7.1 8.1 95 0.4 E 7 9 4 5 1032.2 1032.3 1.4
28/12:00am 9.4 7.9 8.6 95 0.4 E 6 9 3 5 1032.1 1032.2 1.4
 
Date/Time
WST
Temp
°C
App
Temp
°C
Dew
Point
°C
Rel
Hum
%
Delta-T
°C
Wind Press
QNH
hPa
Press
MSL
hPa
Rain since
9am
mm
Dir  Spd
km/h
Gust
km/h
Spd
kts
Gust
kts
27/11:30pm 9.5 6.7 8.7 95 0.4 ESE 13 20 7 11 1032.2 1032.3 1.4
27/11:00pm 8.9 6.8 8.1 95 0.4 SE 9 11 5 6 1032.2 1032.3 0.8
27/10:30pm 8.6 6.4 7.8 95 0.4 ESE 9 13 5 7 1032.2 1032.3 0.8
27/10:00pm 9.1 6.6 8.3 95 0.4 SE 11 15 6 8 1032.1 1032.2 0.8
27/09:30pm 8.5 5.5 7.6 94 0.4 SSE 13 19 7 10 1032.1 1032.2 0.2
27/09:00pm 8.1 5.4 7.2 94 0.4 SSE 11 15 6 8 1031.8 1031.9 0.2
27/08:30pm 6.9 3.9 5.8 93 0.5 SSE 11 15 6 8 1031.6 1031.7 0.2
27/08:00pm 6.7 4.4 5.7 93 0.4 SSE 7 9 4 5 1031.4 1031.5 0.2
27/07:30pm 6.5 3.7 5.3 92 0.5 SSE 9 9 5 5 1031.0 1031.2 0.2
27/07:00pm 6.5 4.1 5.1 91 0.6 SE 7 9 4 5 1030.8 1031.0 0.2
27/06:30pm 6.8 4.6 5.3 90 0.7 SE 6 7 3 4 1030.5 1030.6 0.2
27/06:00pm 7.4 5.2 5.5 88 0.9 SE 6 7 3 4 1030.2 1030.3 0.2
27/05:30pm 8.6 6.4 6.2 85 1.1 SE 7 9 4 5 1029.8 1029.9 0.2
27/05:00pm 9.9 7.9 7.2 83 1.3 SE 7 9 4 5 1029.5 1029.6 0.2
27/04:30pm 10.9 8.7 8.0 82 1.4 SE 9 13 5 7 1029.2 1029.3 0.2
27/04:00pm 11.5 8.6 8.2 80 1.6 SE 13 19 7 10 1028.8 1028.9 0.2
27/03:30pm 11.7 9.2 9.6 87 1.1 SE 13 20 7 11 1028.6 1028.7 0.0
27/03:00pm 12.8 9.9 9.6 81 1.6 SE 15 22 8 12 1028.4 1028.5 0.0
27/02:30pm 11.6 7.9 9.3 86 1.2 SE 19 28 10 15 1028.3 1028.4 0.0
27/02:00pm 12.8 8.9 9.4 80 1.7 SE 20 30 11 16 1028.0 1028.0 0.0
27/01:30pm 14.7 11.7 9.1 69 2.9 ESE 15 22 8 12 1027.5 1027.6 0.0
27/01:00pm 14.0 11.7 9.0 72 2.6 SE 11 15 6 8 1027.6 1027.7 0.0
27/12:30pm 13.3 10.4 8.0 70 2.7 ESE 13 19 7 10 1027.9 1027.9 0.0
27/12:00pm 13.5 10.3 8.4 71 2.6 SE 15 20 8 11 1028.1 1028.2 0.0
27/11:30am 13.4 10.7 8.9 74 2.3 SSE 13 22 7 12 1028.4 1028.5 0.0
27/11:00am 12.5 11.5 10.9 90 0.8 S 7 13 4 7 1028.6 1028.7 0.0
27/10:30am 10.9 9.3 10.1 95 0.4 SW 9 13 5 7 1028.6 1028.7 0.0
27/10:00am 9.6 7.7 9.0 96 0.3 WSW 9 13 5 7 1028.5 1028.6 0.0
27/09:30am 8.7 6.6 8.1 96 0.3 WSW 9 13 5 7 1028.4 1028.5 0.0
27/09:00am 8.2 5.6 7.6 96 0.3 W 11 15 6 8 1028.1 1028.2 1.0
27/08:30am 8.1 5.8 7.5 96 0.3 WNW 9 15 5 8 1027.5 1027.6 1.0
27/08:00am 7.4 5.3 6.8 96 0.3 WNW 7 11 4 6 1027.1 1027.2 1.0
27/07:30am 6.7 4.1 6.0 95 0.3 W 9 13 5 7 1026.6 1026.7 1.0
27/07:00am 6.6 4.0 5.9 95 0.3 W 9 15 5 8 1026.3 1026.4 1.0
27/06:30am 6.3 3.2 5.6 95 0.3 W 11 17 6 9 1025.8 1025.9 1.0
27/06:00am 5.6 2.7 4.9 95 0.3 WNW 9 15 5 8 1025.6 1025.7 1.0
27/05:30am 4.7 0.9 4.0 95 0.3 WNW 13 17 7 9 1025.5 1025.6 0.8
27/05:00am 4.6 1.1 3.7 94 0.4 WNW 11 15 6 8 1025.2 1025.2 0.8
27/04:30am 4.4 0.9 3.5 94 0.4 WNW 11 15 6 8 1025.0 1025.0 0.8
27/04:00am 4.6 0.8 3.7 94 0.4 WNW 13 19 7 10 1024.9 1024.9 0.8
27/03:30am 4.7 1.3 3.8 94 0.4 WNW 11 13 6 7 1025.0 1025.0 0.8
27/03:00am 5.0 1.6 4.1 94 0.4 WNW 11 17 6 9 1025.1 1025.1 0.8
27/02:30am 5.1 1.4 4.2 94 0.4 WNW 13 17 7 9 1025.2 1025.2 0.8
27/02:00am 5.2 1.5 4.2 93 0.4 WNW 13 17 7 9 1025.2 1025.2 0.8
27/01:30am 5.1 2.1 4.1 93 0.4 WNW 9 13 5 7 1025.2 1025.2 0.8
27/01:00am 5.3 2.0 4.3 93 0.4 WNW 11 17 6 9 1025.1 1025.1 0.8
27/12:30am 5.5 2.2 4.3 92 0.5 WNW 11 15 6 8 1025.2 1025.2 0.8
27/12:00am 6.0 2.7 4.8 92 0.5 WNW 11 15 6 8 1025.2 1025.2 0.8
 
Date/Time
WST
Temp
°C
App
Temp
°C
Dew
Point
°C
Rel
Hum
%
Delta-T
°C
Wind Press
QNH
hPa
Press
MSL
hPa
Rain since
9am
mm
Dir  Spd
km/h
Gust
km/h
Spd
kts
Gust
kts
26/11:30pm 5.7 2.8 4.5 92 0.5 WNW 9 11 5 6 1025.5 1025.6 0.8
26/11:00pm 5.9 3.4 4.5 91 0.6 W 7 9 4 5 1025.5 1025.6 0.8
26/10:30pm 7.4 5.2 6.0 91 0.6 W 7 11 4 6 1025.7 1025.8 0.8
26/10:00pm 8.0 5.6 6.8 92 0.6 W 9 13 5 7 1025.7 1025.8 0.8
26/09:30pm 8.8 6.2 7.6 92 0.6 WSW 11 17 6 9 1025.8 1025.9 0.8
26/09:00pm 9.5 7.0 8.4 93 0.5 WSW 11 15 6 8 1025.7 1025.8 0.8
26/08:30pm 9.6 7.6 8.5 93 0.5 W 9 13 5 7 1025.6 1025.7 0.8
26/08:00pm 9.7 7.7 8.6 93 0.5 WSW 9 13 5 7 1025.4 1025.5 0.8
26/07:30pm 9.8 7.0 8.7 93 0.5 W 13 17 7 9 1025.4 1025.5 0.6
26/07:00pm 9.8 6.7 8.7 93 0.5 WSW 15 26 8 14 1025.5 1025.6 0.4
26/06:30pm 10.4 8.2 9.2 92 0.6 WSW 11 15 6 8 1025.3 1025.4 0.2
26/06:00pm 10.4 8.1 9.0 91 0.7 W 11 17 6 9 1024.8 1024.8 0.2
26/05:30pm 10.6 7.1 8.7 88 1.0 WSW 17 26 9 14 1024.5 1024.5 0.0
26/05:00pm 11.7 8.4 8.2 79 1.7 W 15 20 8 11 1024.1 1024.2 0.0
26/04:30pm 12.2 8.6 8.3 77 2.0 WSW 17 26 9 14 1024.1 1024.2 0.0
26/04:00pm 14.0 10.0 8.4 69 2.8 WSW 19 30 10 16 1024.0 1024.1 0.0
26/03:30pm 13.6 10.8 6.9 64 3.3 W 11 17 6 9 1024.2 1024.3 0.0
26/03:00pm 14.0 11.2 6.8 62 3.5 W 11 15 6 8 1024.1 1024.2 0.0
26/02:30pm 15.1 11.3 5.9 54 4.5 W 15 22 8 12 1024.2 1024.3 0.0
26/02:00pm 15.3 11.3 6.8 57 4.2 WNW 17 24 9 13 1024.4 1024.4 0.0
26/01:30pm 15.6 12.2 7.6 59 4.1 WNW 15 22 8 12 1024.7 1024.7 0.0
26/01:00pm 14.7 11.4 8.2 65 3.3 WSW 15 24 8 13 1024.9 1024.9 0.0
26/12:30pm 12.4 9.4 7.7 73 2.3 W 13 20 7 11 1025.4 1025.5 0.0
26/12:00pm 13.2 10.3 8.3 72 2.5 W 13 22 7 12 1025.9 1026.0 0.0
26/11:30am 12.6 9.7 8.1 74 2.3 W 13 20 7 11 1026.4 1026.5 0.0
26/11:00am 12.3 9.1 8.4 77 2.0 WSW 15 22 8 12 1026.7 1026.8 0.0
26/10:30am 12.0 9.3 9.0 82 1.5 W 13 20 7 11 1027.0 1027.1 0.0
26/10:00am 11.1 9.1 10.2 94 0.5 W 11 17 6 9 1027.0 1027.1 0.0
26/09:30am 9.8 7.1 9.0 95 0.4 WNW 13 17 7 9 1027.1 1027.2 0.0
26/09:00am 9.2 6.4 8.6 96 0.3 WNW 13 17 7 9 1027.1 1027.2 1.8
26/08:30am 8.1 5.1 7.5 96 0.3 WNW 13 17 7 9 1026.9 1027.0 1.8
26/08:00am 6.8 3.8 6.2 96 0.3 WNW 11 13 6 7 1026.9 1027.0 1.6
26/07:30am 6.2 3.5 5.6 96 0.3 WNW 9 13 5 7 1026.9 1027.0 1.6
26/07:00am 5.6 2.8 5.0 96 0.3 WNW 9 13 5 7 1026.8 1026.9 1.6
26/06:30am 5.5 2.3 4.9 96 0.3 W 11 13 6 7 1026.4 1026.5 1.6
26/06:00am 5.5 2.2 4.8 95 0.3 WNW 11 13 6 7 1026.3 1026.4 1.6
26/05:30am 6.2 3.1 5.6 96 0.3 WNW 11 15 6 8 1026.2 1026.3 1.6
26/05:00am 6.4 3.7 5.8 96 0.3 W 9 11 5 6 1026.2 1026.3 1.6
26/04:30am 6.3 4.0 5.6 95 0.3 WNW 7 9 4 5 1026.2 1026.3 1.6
26/04:00am 6.6 4.0 6.0 96 0.3 WNW 9 13 5 7 1026.3 1026.4 1.6
26/03:30am 6.5 3.8 5.8 95 0.3 WNW 9 13 5 7 1026.3 1026.4 1.6
26/03:00am 6.4 3.7 5.7 95 0.3 WNW 9 13 5 7 1026.4 1026.5 1.6
26/02:30am 6.0 3.2 5.3 95 0.3 W 9 11 5 6 1026.5 1026.6 1.6
26/02:00am 6.3 3.2 5.6 95 0.3 WNW 11 15 6 8 1026.5 1026.6 1.6
26/01:30am 6.4 3.7 5.7 95 0.3 SSW 9 13 5 7 1026.3 1026.4 1.6
26/01:00am 5.7 4.6 5.0 95 0.3 CALM 0 6 0 3 1026.4 1026.5 1.6
26/12:30am 6.2 3.1 5.5 95 0.3 SSW 11 13 6 7 1026.5 1026.6 1.6
26/12:00am 6.1 3.0 5.4 95 0.3 SSW 11 13 6 7 1026.7 1026.8 1.6

Other Formats:

Comma delimited format used in spreadsheet applications
http://www.bom.gov.au/fwo/IDW60801/IDW60801.95636.axf

JavaScript Object Notation format (JSON) in row-major order
http://www.bom.gov.au/fwo/IDW60801/IDW60801.95636.json